Guadalupe Mtns National Park, TX

5:25 PM MDT on May 25, 2015 (GMT -0600)
Guadalupe Pass | | Change Station
CLOSE
Current Station
Airport
Location: Guadalupe Pass,
Elevation: 5453 ft
Nearby Weather Stations

Elev 5453 ft 31.83 °N, 104.81 °W | Updated 34 minutes ago

Clear
Clear
76 °F
Feels Like 76 °F
N
30
Wind Variable Wind from WSW
Gusts 41 mph

Today
High -- | Low -- °F
--% Chance of Precip.
Yesterday
High -- | Low -- °F
Precip. -- in
5:58 AM 7:56 PM
First Quarter, 52% visible
Pressure 29.76 in
Visibility 10.0 miles
Clouds Clear
Dew Point 29 °F
Humidity 18%
Rainfall 0.00 in
Snow Depth Not available.
UV 5 out of 12
Pollen 5.90 out of 12
Air Quality Not available.
Flu Activity Sporadic
METAR KGDP 252251Z AUTO 25026G36KT 10SM CLR 24/M02 A2998 RMK AO2 PK WND 25038/2221 SLP078 T02441017

More Conditions Fewer Conditions

Pressure 29.76 in
Visibility 10.0 miles
Clouds Clear
Dew Point 29 °F
Humidity 18%
Rainfall 0.00 in
Snow Depth Not available.
UV 5 out of 12
Pollen 5.90 out of 12
Air Quality Not available.
Flu Activity Sporadic
METAR KGDP 252251Z AUTO 25026G36KT 10SM CLR 24/M02 A2998 RMK AO2 PK WND 25038/2221 SLP078 T02441017

More Conditions Fewer Conditions

10-Day Weather Forecast

Almanac

Astronomy

May. 25, 2015 Rise Set
Actual Time
Civil Twilight
Nautical Twilight
Astronomical Twilight
Moon
Length of Visible Light
Length of Day
Tomorrow will be .
, % of the Moon is Illuminated

Today's Extremes

State Highs State Lows

Community

WunderPhotos

Upload Photos

1,824,169 photos uploaded!

WunderBlogs® & News

Nearby

Air Quality

  Air Quality AQ Index Pollutant
Not available.

Snow Depth

Station Depth Elevation

Earthquake Activity

City Distance Mag. Time & Date
Minimum magnitude displayed is 2.5.

Coastal Water Temperatures

Place Temperature

Stations

Nearby Weather Stations

Station Location Temp. Windchill Dew Point Humidity Wind Precip. Elev Updated Type